Time;durP1;ratioP1;P1;durP2;ratioP2;P2;SDS_P1;SDS_P2;PMS_P1;PMS_P2;Temp;Humidity;BMP_temperature;BMP_pressure;BME280_temperature;BME280_humidity;BME280_pressure;Samples;Min_cycle;Max_cycle;Signal;HPM_P1;HPM_P2
2022/04/27 00:00:36;;;;;;;2.50;2.00;;;;;;;5.39;100.00;99383.06;5131842;28;20046;-58
2022/04/27 00:03:04;;;;;;;3.65;1.98;;;;;;;5.44;100.00;99390.25;5131946;28;20070;-57
2022/04/27 00:05:32;;;;;;;1.92;1.75;;;;;;;5.55;100.00;99390.69;5131810;28;20054;-58
2022/04/27 00:07:59;;;;;;;2.22;2.00;;;;;;;5.59;100.00;99381.56;5131709;28;20055;-58
2022/04/27 00:10:26;;;;;;;3.30;1.67;;;;;;;5.61;100.00;99378.53;5131645;28;20053;-58
2022/04/27 00:12:52;;;;;;;3.60;2.15;;;;;;;5.71;100.00;99364.56;5131812;28;20047;-58
2022/04/27 00:15:20;;;;;;;7.63;2.17;;;;;;;5.70;100.00;99351.25;5131406;28;20525;-58
2022/04/27 00:17:47;;;;;;;2.38;1.90;;;;;;;5.74;100.00;99349.50;5131747;28;20505;-58
2022/04/27 00:20:13;;;;;;;4.65;1.63;;;;;;;5.72;100.00;99346.31;5131451;28;20413;-58
2022/04/27 00:22:39;;;;;;;3.92;1.58;;;;;;;5.67;100.00;99344.59;5131845;28;20091;-58
2022/04/27 00:25:06;;;;;;;3.65;1.80;;;;;;;5.61;100.00;99345.88;5131450;28;20093;-58
2022/04/27 00:27:33;;;;;;;3.40;1.60;;;;;;;5.57;100.00;99353.09;5131457;28;20055;-58
2022/04/27 00:29:59;;;;;;;3.22;1.90;;;;;;;5.66;100.00;99367.44;5131482;28;20047;-58
2022/04/27 00:32:26;;;;;;;5.10;1.83;;;;;;;5.75;100.00;99361.97;5131803;28;20043;-58
2022/04/27 00:34:52;;;;;;;3.13;1.98;;;;;;;5.77;100.00;99365.97;5131652;28;20047;-58
2022/04/27 00:37:18;;;;;;;2.08;1.83;;;;;;;5.90;100.00;99364.16;5130903;28;20456;-58
2022/04/27 00:39:45;;;;;;;2.45;1.70;;;;;;;5.96;100.00;99345.72;5131334;28;20375;-58
2022/04/27 00:42:16;;;;;;;2.13;1.58;;;;;;;6.06;100.00;99312.69;5130995;28;20067;-58
2022/04/27 00:44:44;;;;;;;6.47;2.05;;;;;;;6.12;100.00;99303.97;5131518;28;20054;-58
2022/04/27 00:47:11;;;;;;;3.10;1.90;;;;;;;6.20;100.00;99282.47;5130977;28;20051;-58
2022/04/27 00:49:40;;;;;;;7.53;2.67;;;;;;;6.27;100.00;99258.25;5131049;28;20062;-58
2022/04/27 00:52:07;;;;;;;2.75;2.00;;;;;;;6.30;100.00;99249.41;5130695;28;20060;-58
2022/04/27 00:54:35;;;;;;;3.70;1.70;;;;;;;6.38;100.00;99194.06;5130860;28;20533;-58
2022/04/27 00:57:01;;;;;;;5.88;2.28;;;;;;;6.47;100.00;99173.00;5130696;28;20055;-58
2022/04/27 00:59:27;;;;;;;3.55;1.67;;;;;;;6.51;100.00;99129.53;5130934;28;20046;-58
2022/04/27 01:01:54;;;;;;;5.05;2.40;;;;;;;6.58;100.00;99125.09;5130423;27;20047;-57
2022/04/27 01:04:20;;;;;;;4.90;2.15;;;;;;;6.61;100.00;99090.97;5130853;28;20054;-58
2022/04/27 01:06:47;;;;;;;3.05;1.83;;;;;;;6.67;100.00;99077.91;5130624;28;20057;-58
2022/04/27 01:09:14;;;;;;;5.38;1.90;;;;;;;6.70;100.00;99067.13;5130698;28;20047;-58
2022/04/27 01:11:40;;;;;;;2.38;1.98;;;;;;;6.68;100.00;99082.22;5130868;28;20054;-58
2022/04/27 01:14:06;;;;;;;2.85;2.20;;;;;;;6.70;100.00;99127.06;5130965;28;20062;-58
2022/04/27 01:16:33;;;;;;;2.95;1.88;;;;;;;6.72;100.00;99121.25;5130872;28;20050;-58
2022/04/27 01:19:00;;;;;;;1.98;1.75;;;;;;;6.75;100.00;99079.72;5130745;28;20051;-58
2022/04/27 01:21:27;;;;;;;3.70;2.03;;;;;;;6.77;100.00;99050.22;5130842;28;20143;-58
2022/04/27 01:23:53;;;;;;;6.00;1.88;;;;;;;6.74;100.00;99054.41;5130657;28;20051;-58
2022/04/27 01:26:20;;;;;;;3.55;1.73;;;;;;;6.77;100.00;99001.16;5130589;28;20043;-58
2022/04/27 01:28:46;;;;;;;2.75;1.88;;;;;;;6.71;100.00;98978.81;5130695;28;20443;-58
2022/04/27 01:31:13;;;;;;;3.88;2.15;;;;;;;6.69;100.00;98969.38;5130573;28;20055;-58
2022/04/27 01:33:40;;;;;;;2.03;1.55;;;;;;;6.70;100.00;98988.13;5130777;28;20047;-58
2022/04/27 01:36:07;;;;;;;1.50;1.40;;;;;;;6.69;100.00;99015.69;5130378;28;20113;-58
2022/04/27 01:38:35;;;;;;;1.70;1.60;;;;;;;6.70;100.00;98973.72;5130568;28;20047;-58
2022/04/27 01:41:02;;;;;;;2.05;1.38;;;;;;;6.70;100.00;98954.66;5130231;28;20052;-58
2022/04/27 01:43:29;;;;;;;2.08;1.58;;;;;;;6.73;100.00;98962.09;5130800;28;20051;-58
2022/04/27 01:45:55;;;;;;;1.75;1.52;;;;;;;6.73;100.00;98970.28;5130347;28;20053;-58
2022/04/27 01:48:22;;;;;;;1.77;1.67;;;;;;;6.68;100.00;98965.88;5130367;28;20509;-58
2022/04/27 01:50:49;;;;;;;2.67;1.50;;;;;;;6.69;100.00;98991.19;5130132;28;20051;-58
2022/04/27 01:56:00;;;;;;;3.25;1.70;;;;;;;6.51;100.00;99024.09;5130103;28;20100;-58
2022/04/27 01:58:27;;;;;;;1.63;1.52;;;;;;;6.53;100.00;99027.31;5130157;28;20051;-58
2022/04/27 02:00:53;;;;;;;1.52;1.42;;;;;;;6.55;100.00;99038.63;5130444;28;20493;-58
2022/04/27 02:03:21;;;;;;;1.83;1.50;;;;;;;6.52;100.00;99022.97;5129869;28;20043;-58
2022/04/27 02:05:48;;;;;;;5.60;1.80;;;;;;;6.52;100.00;98994.94;5130236;28;20050;-59
2022/04/27 02:08:15;;;;;;;1.63;1.52;;;;;;;6.56;100.00;98969.41;5129950;28;20049;-58
2022/04/27 02:10:41;;;;;;;1.98;1.77;;;;;;;6.68;100.00;98937.84;5130234;28;20575;-59
2022/04/27 02:13:10;;;;;;;1.60;1.50;;;;;;;6.63;100.00;98913.53;5130389;27;20051;-58
2022/04/27 02:15:36;;;;;;;2.70;1.75;;;;;;;6.66;100.00;98910.13;5133498;28;20168;-58
2022/04/27 02:18:03;;;;;;;1.55;1.30;;;;;;;6.67;100.00;98917.97;5133427;28;20116;-58
2022/04/27 02:20:30;;;;;;;1.73;1.63;;;;;;;6.67;100.00;98907.09;5133206;28;20502;-58
2022/04/27 02:22:56;;;;;;;2.88;1.75;;;;;;;6.58;100.00;98911.88;5133364;28;20051;-58
2022/04/27 02:25:23;;;;;;;1.73;1.48;;;;;;;6.48;100.00;98901.44;5133202;28;20047;-58
2022/04/27 02:27:50;;;;;;;8.27;1.90;;;;;;;6.46;100.00;98914.59;5133389;28;20055;-58
2022/04/27 02:30:18;;;;;;;3.08;1.30;;;;;;;6.40;100.00;98937.75;5133101;28;20047;-58
2022/04/27 02:32:46;;;;;;;2.42;1.60;;;;;;;6.33;100.00;98951.94;5133416;28;20047;-58
2022/04/27 02:35:12;;;;;;;4.18;1.35;;;;;;;6.27;100.00;98986.00;5132965;28;20043;-58
2022/04/27 02:37:39;;;;;;;14.65;1.77;;;;;;;6.14;100.00;99023.31;5133123;28;20051;-58
2022/04/27 02:40:08;;;;;;;1.67;1.58;;;;;;;6.15;100.00;99071.16;5132970;28;20043;-58
2022/04/27 02:42:34;;;;;;;7.10;1.60;;;;;;;6.15;100.00;99083.97;5132949;28;20051;-58
2022/04/27 02:45:00;;;;;;;2.58;1.67;;;;;;;6.16;100.00;99116.28;5133081;28;20047;-58
2022/04/27 02:47:27;;;;;;;3.50;1.50;;;;;;;6.18;100.00;99124.94;5132832;28;20054;-58
2022/04/27 02:52:38;;;;;;;1.73;1.63;;;;;;;5.97;100.00;99178.63;5132741;28;20066;-58
2022/04/27 02:55:04;;;;;;;4.85;1.58;;;;;;;5.88;100.00;99214.03;5133028;28;20047;-58
2022/04/27 02:57:30;;;;;;;2.80;1.63;;;;;;;5.82;100.00;99242.56;5132631;28;20055;-58
2022/04/27 02:59:57;;;;;;;3.78;1.42;;;;;;;5.83;100.00;99274.88;5132953;28;20073;-58
2022/04/27 03:02:23;;;;;;;1.60;1.50;;;;;;;5.77;100.00;99287.06;5132596;28;20502;-58
2022/04/27 03:04:50;;;;;;;4.43;1.20;;;;;;;5.78;100.00;99312.34;5132868;28;20046;-58
2022/04/27 03:07:16;;;;;;;1.50;1.40;;;;;;;5.74;100.00;99316.88;5132806;28;20494;-58
2022/04/27 03:09:42;;;;;;;3.05;1.60;;;;;;;5.78;100.00;99328.69;5132582;28;20051;-58
2022/04/27 03:12:09;;;;;;;1.45;1.30;;;;;;;5.81;100.00;99352.50;5132683;28;20046;-58
2022/04/27 03:14:35;;;;;;;1.52;1.42;;;;;;;5.82;100.00;99359.53;5132261;28;20058;-58
2022/04/27 03:17:01;;;;;;;3.05;1.20;;;;;;;5.93;100.00;99336.31;5132339;28;20059;-58
2022/04/27 03:19:27;;;;;;;4.00;1.30;;;;;;;5.99;100.00;99285.19;5132289;28;20525;-58
2022/04/27 03:21:54;;;;;;;2.47;1.40;;;;;;;6.12;100.00;99241.38;5132438;28;20051;-58
2022/04/27 03:24:21;;;;;;;1.50;0.93;;;;;;;6.40;100.00;99191.81;5131991;27;20051;-58
2022/04/27 03:26:47;;;;;;;2.08;1.55;;;;;;;6.69;100.00;99125.44;5132628;28;20406;-58
2022/04/27 03:29:14;;;;;;;1.92;1.30;;;;;;;6.94;100.00;99021.91;5132158;28;20058;-58
2022/04/27 03:31:40;;;;;;;1.27;1.17;;;;;;;7.09;100.00;98912.13;5132464;28;20051;-58
2022/04/27 03:34:06;;;;;;;1.95;1.25;;;;;;;7.03;100.00;98791.69;5132315;28;20421;-58
2022/04/27 03:36:33;;;;;;;3.40;1.55;;;;;;;6.96;100.00;98779.78;5132444;28;20135;-58
2022/04/27 03:39:00;;;;;;;4.47;1.48;;;;;;;6.79;100.00;98775.47;5132322;28;20055;-58
2022/04/27 03:41:28;;;;;;;2.45;1.50;;;;;;;6.81;100.00;98816.78;5132279;28;20500;-58
2022/04/27 03:43:54;;;;;;;1.42;1.33;;;;;;;6.86;100.00;98851.16;5132421;28;20106;-58
2022/04/27 03:46:21;;;;;;;1.77;1.48;;;;;;;6.92;100.00;98863.38;5132326;28;20070;-58
2022/04/27 03:48:47;;;;;;;1.55;1.17;;;;;;;7.12;100.00;98858.88;5132415;28;20057;-58
2022/04/27 03:51:13;;;;;;;4.38;1.35;;;;;;;7.04;100.00;98827.91;5131895;28;20100;-58
2022/04/27 03:53:39;;;;;;;1.65;1.55;;;;;;;7.08;100.00;98815.16;5132235;28;20537;-58
2022/04/27 03:56:06;;;;;;;3.20;1.40;;;;;;;7.18;100.00;98827.47;5131715;28;20058;-58
2022/04/27 03:58:33;;;;;;;4.60;1.90;;;;;;;7.62;100.00;98854.69;5131990;28;20047;-57
2022/04/27 04:00:59;;;;;;;1.70;1.25;;;;;;;8.22;100.00;98746.84;5131722;28;20190;-58
2022/04/27 04:03:25;;;;;;;2.05;1.27;;;;;;;8.86;100.00;98623.53;5131872;28;20459;-58
2022/04/27 04:05:52;;;;;;;2.80;1.20;;;;;;;9.33;100.00;98472.63;5131700;28;20047;-58
2022/04/27 04:08:19;;;;;;;2.10;1.15;;;;;;;9.18;100.00;98397.03;5131580;28;20074;-58
2022/04/27 04:10:46;;;;;;;1.40;1.30;;;;;;;8.72;100.00;98375.41;5131679;28;20042;-58
2022/04/27 04:13:12;;;;;;;5.68;1.23;;;;;;;8.65;100.00;98411.63;5131320;28;20047;-58
2022/04/27 04:15:39;;;;;;;4.07;1.30;;;;;;;9.33;100.00;98403.44;5131755;28;20047;-58
2022/04/27 04:18:05;;;;;;;5.82;1.40;;;;;;;9.50;100.00;98356.34;5131319;28;20055;-58
2022/04/27 04:20:31;;;;;;;1.92;1.30;;;;;;;9.23;100.00;98357.63;5131351;28;20058;-58
2022/04/27 04:22:58;;;;;;;1.60;1.50;;;;;;;9.21;100.00;98349.81;5131345;28;20051;-58
2022/04/27 04:31:05;;;;;;;1.45;1.10;;;;;;;10.04;100.00;98386.88;5067802;28;20044;-58
2022/04/27 04:33:32;;;;;;;1.15;1.05;;;;;;;10.87;100.00;98401.88;5115983;28;20482;-58
2022/04/27 04:35:58;;;;;;;1.10;1.00;;;;;;;11.53;100.00;98460.91;5130188;27;20144;-58
2022/04/27 04:38:25;;;;;;;1.55;0.80;;;;;;;11.73;100.00;98526.47;5131242;28;20403;-58
2022/04/27 04:40:52;;;;;;;2.53;0.98;;;;;;;12.39;100.00;98572.91;5130893;28;20536;-58
2022/04/27 04:43:18;;;;;;;2.47;1.30;;;;;;;13.18;100.00;98592.94;5130726;28;20050;-58
2022/04/27 04:45:45;;;;;;;5.45;1.10;;;;;;;13.50;100.00;98660.97;5130823;28;20095;-59
2022/04/27 04:48:11;;;;;;;1.48;1.00;;;;;;;14.17;100.00;98679.22;5131180;28;20054;-59
2022/04/27 04:50:38;;;;;;;1.38;1.00;;;;;;;14.45;100.00;98765.75;5130919;28;20058;-58
2022/04/27 04:53:04;;;;;;;1.55;1.00;;;;;;;14.90;100.00;98769.53;5130712;28;20532;-58
2022/04/27 04:55:32;;;;;;;1.30;1.20;;;;;;;15.16;100.00;98800.50;5131032;28;20047;-58
2022/04/27 04:57:58;;;;;;;1.23;1.00;;;;;;;14.54;100.00;98835.13;5130654;28;20058;-58
2022/04/27 05:00:24;;;;;;;1.25;1.15;;;;;;;13.78;100.00;98804.13;5130854;28;20046;-58
2022/04/27 05:02:50;;;;;;;1.17;1.08;;;;;;;13.92;100.00;98791.50;5130332;28;20667;-58
2022/04/27 05:05:17;;;;;;;1.15;0.90;;;;;;;13.36;100.00;98840.69;5130914;28;20403;-58
2022/04/27 05:07:44;;;;;;;2.55;0.98;;;;;;;12.53;100.00;98814.91;5130722;28;20051;-58
2022/04/27 05:10:10;;;;;;;0.85;0.85;;;;;;;12.52;100.00;98776.78;5130728;28;20124;-58
2022/04/27 05:12:37;;;;;;;1.63;1.00;;;;;;;13.32;100.00;98777.38;5130361;28;20047;-58
2022/04/27 05:15:04;;;;;;;2.05;0.80;;;;;;;13.69;100.00;98816.72;5130509;28;20047;-58
2022/04/27 05:17:30;;;;;;;1.30;1.20;;;;;;;14.31;100.00;98830.81;5130415;28;20120;-59
2022/04/27 05:19:56;;;;;;;2.75;1.10;;;;;;;14.65;100.00;98852.41;5130203;28;20047;-55
2022/04/27 05:22:23;;;;;;;1.58;0.80;;;;;;;15.31;100.00;98868.25;5130216;28;20498;-54
2022/04/27 05:24:49;;;;;;;3.53;0.90;;;;;;;15.77;100.00;98872.72;5128227;28;20047;-54
2022/04/27 05:27:15;;;;;;;2.55;1.10;;;;;;;15.69;100.00;98893.28;5124302;28;20415;-56
2022/04/27 05:32:27;;;;;;;4.15;0.90;;;;;;;15.18;100.00;98917.63;5130334;28;20100;-53
2022/04/27 05:34:54;;;;;;;1.65;0.90;;;;;;;15.35;100.00;98904.94;5129944;28;20047;-58
2022/04/27 05:37:20;;;;;;;3.42;1.10;;;;;;;15.91;100.00;98911.31;5129861;28;20051;-52
2022/04/27 05:39:47;;;;;;;1.70;1.20;;;;;;;16.68;100.00;98912.97;5128464;28;20051;-60
2022/04/27 05:42:14;;;;;;;1.65;1.38;;;;;;;17.05;100.00;98952.91;5129697;28;20048;-55
2022/04/27 05:44:40;;;;;;;1.25;1.17;;;;;;;17.02;100.00;98937.91;5129731;28;20052;-57
2022/04/27 05:47:06;;;;;;;1.30;1.20;;;;;;;17.12;100.00;98961.13;5130456;27;20051;-54
2022/04/27 05:49:32;;;;;;;2.35;1.20;;;;;;;17.10;100.00;98972.66;5132093;28;20643;-54
2022/04/27 05:51:59;;;;;;;0.73;0.73;;;;;;;17.13;100.00;98974.59;5133250;28;20057;-55
2022/04/27 05:54:25;;;;;;;1.05;0.98;;;;;;;17.60;100.00;98980.34;5133500;28;20073;-53
2022/04/27 05:56:52;;;;;;;1.50;1.20;;;;;;;17.93;100.00;98982.69;5133323;28;20059;-54
2022/04/27 05:59:18;;;;;;;1.75;0.95;;;;;;;18.04;100.00;98999.94;5131860;28;20079;-53
2022/04/27 06:01:45;;;;;;;1.23;1.10;;;;;;;18.31;100.00;99019.34;5133294;28;20043;-54
2022/04/27 06:04:11;;;;;;;1.05;0.95;;;;;;;18.15;100.00;99019.97;5133207;28;20567;-53
2022/04/27 06:06:37;;;;;;;2.78;0.93;;;;;;;18.61;100.00;99018.44;5133046;28;20058;-53
2022/04/27 06:09:04;;;;;;;1.48;1.20;;;;;;;18.89;100.00;99027.50;5132555;28;20407;-53
2022/04/27 06:11:30;;;;;;;1.40;1.20;;;;;;;18.61;100.00;99045.44;5132515;28;20043;-56
2022/04/27 06:13:57;;;;;;;1.13;1.00;;;;;;;18.72;100.00;99044.06;5132875;28;20066;-55
2022/04/27 06:16:24;;;;;;;3.70;1.20;;;;;;;18.83;100.00;99045.88;5133108;28;20055;-58
2022/04/27 06:18:50;;;;;;;1.67;1.00;;;;;;;19.06;100.00;99045.88;5132207;28;20144;-54
2022/04/27 06:21:17;;;;;;;1.23;1.13;;;;;;;19.17;100.00;99040.91;5132263;28;20051;-55
2022/04/27 06:23:44;;;;;;;6.68;1.35;;;;;;;19.02;100.00;99045.13;5132716;28;20524;-51
2022/04/27 06:26:10;;;;;;;1.40;1.30;;;;;;;19.03;100.00;99036.38;5132536;28;20514;-54
2022/04/27 06:28:36;;;;;;;1.10;1.05;;;;;;;19.18;100.00;99052.78;5131481;28;20051;-55
2022/04/27 06:31:03;;;;;;;2.13;1.10;;;;;;;19.20;100.00;99045.59;5132126;28;20051;-56
2022/04/27 06:33:30;;;;;;;5.88;1.40;;;;;;;19.32;100.00;99046.16;5132064;28;20058;-56
2022/04/27 06:35:56;;;;;;;2.20;1.10;;;;;;;19.49;100.00;99045.03;5132766;28;20047;-53
2022/04/27 06:38:22;;;;;;;1.52;0.95;;;;;;;19.19;100.00;99046.00;5132723;28;20047;-51
2022/04/27 06:40:48;;;;;;;1.10;1.10;;;;;;;19.37;100.00;99054.03;5132661;28;20118;-53
2022/04/27 06:43:14;;;;;;;1.20;1.10;;;;;;;19.47;100.00;99053.03;5132440;28;20051;-51
2022/04/27 06:45:41;;;;;;;1.73;1.00;;;;;;;19.77;100.00;99046.47;5131736;28;20543;-56
2022/04/27 06:48:08;;;;;;;3.08;1.20;;;;;;;19.42;100.00;99059.84;5132080;28;20050;-52
2022/04/27 06:50:34;;;;;;;2.13;1.10;;;;;;;19.52;100.00;99058.06;5132469;27;20047;-54
2022/04/27 06:53:00;;;;;;;0.90;0.90;;;;;;;19.79;100.00;99063.50;5132249;28;20043;-54
2022/04/27 06:55:27;;;;;;;2.30;1.40;;;;;;;19.88;100.00;99060.94;5132278;28;20405;-55
2022/04/27 06:57:54;;;;;;;2.80;1.30;;;;;;;19.87;100.00;99069.72;5132108;28;20062;-54
2022/04/27 07:00:20;;;;;;;1.75;1.02;;;;;;;20.23;100.00;99064.16;5131446;27;20061;-52
2022/04/27 07:02:46;;;;;;;1.08;0.80;;;;;;;20.19;100.00;99083.72;5131884;27;20043;-53
2022/04/27 07:05:17;;;;;;;1.92;0.93;;;;;;;19.92;100.00;99085.88;5132192;28;20055;-56
2022/04/27 07:07:44;;;;;;;0.90;0.90;;;;;;;19.71;100.00;99090.69;5131888;28;20528;-53
2022/04/27 07:10:11;;;;;;;1.63;1.27;;;;;;;19.91;100.00;99078.75;5132496;28;20043;-55
2022/04/27 07:12:37;;;;;;;1.77;1.17;;;;;;;19.46;100.00;99087.56;5131840;27;20055;-51
2022/04/27 07:15:04;;;;;;;6.50;2.25;;;;;;;19.16;100.00;99088.53;5131894;27;20057;-52
2022/04/27 07:17:31;;;;;;;2.17;1.63;;;;;;;19.13;100.00;99081.88;5131884;28;20055;-56
2022/04/27 07:19:57;;;;;;;2.10;1.80;;;;;;;19.54;100.00;99083.47;5132009;27;20054;-54
2022/04/27 07:22:24;;;;;;;4.03;0.93;;;;;;;19.98;100.00;99092.53;5131958;27;20051;-54
2022/04/27 07:24:51;;;;;;;1.10;0.90;;;;;;;20.27;100.00;99091.91;5132016;27;20122;-51
2022/04/27 07:27:17;;;;;;;2.33;1.35;;;;;;;;;;5131802;28;20133;-52
2022/04/27 07:29:43;;;;;;;1.80;1.05;;;;;;;20.63;100.00;99106.59;5131436;28;20527;-53
2022/04/27 07:32:09;;;;;;;1.23;1.13;;;;;;;20.77;100.00;99108.25;5131629;28;20055;-51
2022/04/27 07:34:35;;;;;;;2.78;1.02;;;;;;;20.67;100.00;99112.84;5131581;27;20055;-53
2022/04/27 07:37:03;;;;;;;1.95;1.38;;;;;;;19.90;100.00;99105.03;5131387;27;20051;-53
2022/04/27 07:39:30;;;;;;;1.67;1.20;;;;;;;19.89;100.00;99098.69;5131509;28;20420;-55
2022/04/27 07:41:56;;;;;;;5.13;1.90;;;;;;;20.13;100.00;99102.13;5131404;28;20047;-53
2022/04/27 07:44:22;;;;;;;2.00;1.60;;;;;;;20.30;100.00;99105.75;5131401;27;20375;-55
2022/04/27 07:46:49;;;;;;;1.65;1.38;;;;;;;19.99;100.00;99105.22;5131477;28;20524;-52
2022/04/27 07:49:16;;;;;;;1.45;1.20;;;;;;;19.78;100.00;99117.56;5131451;28;20426;-55
2022/04/27 07:51:42;;;;;;;1.23;1.13;;;;;;;20.35;100.00;99105.22;5131397;28;20091;-54
2022/04/27 07:54:08;;;;;;;1.88;1.27;;;;;;;20.65;100.00;99104.13;5131494;28;20047;-53
2022/04/27 07:56:35;;;;;;;1.88;1.30;;;;;;;20.84;100.00;99099.72;5131285;28;20495;-53
2022/04/27 07:59:01;;;;;;;7.00;2.08;;;;;;;19.98;100.00;99098.88;5131372;28;20043;-53
2022/04/27 08:01:28;;;;;;;2.05;0.98;;;;;;;20.30;100.00;99091.03;5130992;27;20055;-55
2022/04/27 08:03:54;;;;;;;5.15;1.85;;;;;;;20.39;100.00;99086.44;5131133;27;20453;-55
2022/04/27 08:06:20;;;;;;;2.45;1.52;;;;;;;20.07;100.00;99097.50;5131411;28;20051;-53
2022/04/27 08:08:46;;;;;;;6.32;3.53;;;;;;;20.47;100.00;99089.84;5131035;27;20043;-53
2022/04/27 08:11:13;;;;;;;5.75;3.28;;;;;;;20.93;100.00;99099.09;5129740;27;20043;-54
2022/04/27 08:13:40;;;;;;;1.88;1.40;;;;;;;21.01;100.00;99102.47;5131116;28;20550;-54
2022/04/27 08:16:07;;;;;;;2.53;1.77;;;;;;;19.69;100.00;99095.09;5131161;28;20510;-55
2022/04/27 08:18:35;;;;;;;3.03;2.05;;;;;;;20.09;100.00;99087.53;5130981;27;20107;-54
2022/04/27 08:21:15;;;;;;;7.30;1.40;;;;;;;20.70;100.00;99083.34;5131459;27;20130;-55
2022/04/27 08:23:42;;;;;;;3.83;1.60;;;;;;;21.24;100.00;99104.28;5131121;27;20141;-55
2022/04/27 08:26:10;;;;;;;11.25;2.22;;;;;;;21.38;100.00;99109.50;5131036;28;20051;-55
2022/04/27 08:28:37;;;;;;;5.50;2.47;;;;;;;21.70;100.00;99096.69;5130954;27;20062;-54
2022/04/27 08:31:05;;;;;;;4.68;1.23;;;;;;;21.64;100.00;99113.19;5130598;28;20111;-57
2022/04/27 08:33:31;;;;;;;5.72;1.70;;;;;;;21.33;100.00;99129.53;5130714;27;20055;-51
2022/04/27 08:35:58;;;;;;;3.70;1.60;;;;;;;21.14;100.00;99140.34;5130731;28;20074;-49
2022/04/27 08:38:24;;;;;;;1.52;1.40;;;;;;;20.47;100.00;99131.59;5130796;28;20409;-55
2022/04/27 08:40:50;;;;;;;4.95;1.60;;;;;;;20.11;100.00;99120.47;5130955;28;20486;-54
2022/04/27 08:43:16;;;;;;;1.58;1.23;;;;;;;20.05;100.00;99131.31;5130865;28;20047;-54
2022/04/27 08:45:44;;;;;;;1.05;1.00;;;;;;;19.90;100.00;99132.84;5130916;27;20054;-56
2022/04/27 08:48:14;;;;;;;2.28;1.50;;;;;;;20.32;100.00;99110.88;5130772;28;20047;-55
2022/04/27 08:50:40;;;;;;;2.92;1.98;;;;;;;20.38;100.00;99118.28;5131050;28;20047;-52
2022/04/27 08:53:07;;;;;;;2.72;1.60;;;;;;;19.92;100.00;99122.06;5130144;28;20054;-54
2022/04/27 08:55:36;;;;;;;2.63;1.42;;;;;;;19.60;100.00;99115.13;5130703;28;20054;-55
2022/04/27 08:58:09;;;;;;;1.75;1.35;;;;;;;19.74;100.00;99114.09;5130468;28;20566;-52
2022/04/27 09:00:36;;;;;;;1.48;1.33;;;;;;;20.05;100.00;99122.97;5130482;27;20043;-55
2022/04/27 09:03:21;;;;;;;7.63;1.80;;;;;;;;;;5130407;28;20062;-55
2022/04/27 09:05:50;;;;;;;3.10;1.40;;;;;;;20.54;95.31;99137.03;5130808;27;20043;-55
2022/04/27 09:08:17;;;;;;;6.50;2.17;;;;;;;20.42;94.84;99143.25;5130898;28;20090;-52
2022/04/27 09:10:43;;;;;;;2.92;1.42;;;;;;;20.40;88.60;99157.63;5130680;27;20387;-57
2022/04/27 09:13:09;;;;;;;9.80;2.45;;;;;;;20.44;93.82;99157.53;5127577;28;20047;-54
2022/04/27 09:15:35;;;;;;;4.50;1.55;;;;;;;20.38;84.28;99170.38;5130459;28;20051;-53
2022/04/27 09:20:52;;;;;;;4.38;1.83;;;;;;;20.38;84.22;99187.88;5084687;28;20055;-54
2022/04/27 09:23:23;;;;;;;5.35;1.63;;;;;;;20.07;79.03;99187.34;5132766;27;20100;-55
2022/04/27 09:25:51;;;;;;;8.05;2.47;;;;;;;20.08;82.86;99199.25;5133185;28;20104;-55
2022/04/27 09:28:18;;;;;;;1.13;1.00;;;;;;;20.10;75.63;99194.84;5133347;28;20058;-50
2022/04/27 09:30:47;;;;;;;3.10;1.13;;;;;;;19.71;76.31;99190.81;5134640;28;20719;-54
2022/04/27 09:33:14;;;;;;;2.13;1.48;;;;;;;19.68;81.42;99180.53;5134235;28;20062;-52
2022/04/27 09:35:40;;;;;;;6.25;1.77;;;;;;;19.24;81.27;99190.81;5133824;28;20055;-54
2022/04/27 09:38:14;;;;;;;3.35;1.40;;;;;;;19.33;81.32;99189.50;5134060;28;20058;-52
2022/04/27 09:40:45;;;;;;;5.25;1.77;;;;;;;19.48;84.80;99168.56;5134397;28;20047;-52
2022/04/27 09:43:13;;;;;;;3.72;1.77;;;;;;;19.52;81.25;99185.97;5133812;28;20054;-52
2022/04/27 09:45:40;;;;;;;3.95;2.42;;;;;;;19.77;84.91;99190.34;5133770;28;20138;-50
2022/04/27 09:48:08;;;;;;;3.13;2.40;;;;;;;19.47;84.51;99184.47;5133934;28;20051;-50
2022/04/27 09:50:50;;;;;;;2.17;1.10;;;;;;;19.01;78.76;99188.03;5133717;28;20054;-54
2022/04/27 09:53:17;;;;;;;1.33;0.93;;;;;;;18.92;79.45;99196.13;5131089;28;20043;-51
2022/04/27 09:55:47;;;;;;;6.13;1.20;;;;;;;19.05;82.68;99191.53;5133642;28;20054;-54
2022/04/27 09:58:14;;;;;;;1.20;1.10;;;;;;;18.68;82.71;99181.38;5134094;28;20047;-51
2022/04/27 10:00:42;;;;;;;1.77;1.10;;;;;;;18.41;84.56;99187.69;5133474;28;20089;-50
2022/04/27 10:03:10;;;;;;;1.50;1.10;;;;;;;17.97;83.02;99177.56;5133998;28;20043;-52
2022/04/27 10:05:36;;;;;;;2.70;1.27;;;;;;;17.64;85.74;99175.13;5133553;28;20521;-52
2022/04/27 10:08:04;;;;;;;3.13;1.55;;;;;;;17.82;85.52;99177.72;5133745;28;20055;-52
2022/04/27 10:10:31;;;;;;;3.05;1.13;;;;;;;17.28;85.20;99180.22;5133588;28;20148;-53
2022/04/27 10:13:01;;;;;;;1.48;0.98;;;;;;;16.96;90.30;99174.16;5133409;28;20051;-52
2022/04/27 10:15:29;;;;;;;3.10;1.23;;;;;;;17.22;91.60;99176.31;5133364;28;20047;-53
2022/04/27 10:17:55;;;;;;;2.28;1.30;;;;;;;17.61;92.29;99172.38;5133282;28;20056;-54
2022/04/27 10:20:29;;;;;;;3.35;1.80;;;;;;;17.90;94.09;99174.88;5133456;28;20051;-49
2022/04/27 10:23:17;;;;;;;1.13;0.93;;;;;;;18.00;89.52;99185.84;5133316;28;20047;-54
2022/04/27 10:26:03;;;;;;;3.33;1.58;;;;;;;18.04;93.70;99194.91;5133496;28;20043;-53
2022/04/27 10:28:30;;;;;;;1.65;1.30;;;;;;;17.84;84.21;99203.06;5133324;28;20503;-51
2022/04/27 10:31:01;;;;;;;3.00;1.33;;;;;;;17.39;88.34;99205.06;5133377;28;20058;-52
2022/04/27 10:33:39;;;;;;;3.35;1.45;;;;;;;16.79;87.43;99192.47;5132082;27;20047;-52
2022/04/27 10:36:21;;;;;;;2.28;1.80;;;;;;;16.14;91.61;99190.03;5132751;28;20062;-52
2022/04/27 10:39:16;;;;;;;2.63;1.15;;;;;;;16.43;95.69;99179.63;5132832;28;20047;-51
2022/04/27 10:41:48;;;;;;;2.65;1.17;;;;;;;16.35;95.49;99189.16;5129098;28;20047;-52
2022/04/27 10:44:15;;;;;;;3.15;2.33;;;;;;;16.54;100.00;99167.72;5132866;28;20047;-54
2022/04/27 10:46:44;;;;;;;5.00;1.42;;;;;;;16.51;95.50;99182.34;5132799;28;20046;-51
2022/04/27 10:49:23;;;;;;;4.10;1.60;;;;;;;16.27;94.65;99179.31;5132669;28;20090;-54
2022/04/27 10:52:00;;;;;;;2.35;1.42;;;;;;;16.37;96.74;99169.38;5132678;28;20054;-53
2022/04/27 10:54:27;;;;;;;2.60;1.13;;;;;;;16.65;95.77;99165.66;5132479;28;20047;-54
2022/04/27 10:56:53;;;;;;;3.92;1.40;;;;;;;16.67;98.64;99171.56;5132749;28;20100;-54
2022/04/27 10:59:43;;;;;;;2.15;1.58;;;;;;;16.74;100.00;99167.97;5132394;28;20530;-54
2022/04/27 11:02:31;;;;;;;1.77;1.17;;;;;;;16.28;100.00;99174.56;5119973;28;20062;-52
2022/04/27 11:04:58;;;;;;;1.65;1.10;;;;;;;16.02;99.89;99179.41;5132885;28;20054;-52
2022/04/27 11:07:33;;;;;;;3.35;1.63;;;;;;;15.76;100.00;99180.69;5132450;28;20050;-54
2022/04/27 11:10:11;;;;;;;2.40;1.30;;;;;;;15.23;100.00;99167.75;5132465;28;20047;-51
2022/04/27 11:12:38;;;;;;;2.25;1.25;;;;;;;14.96;100.00;99153.53;5132372;28;20072;-54
2022/04/27 11:15:07;;;;;;;3.03;1.60;;;;;;;14.67;100.00;99150.78;5132423;28;20047;-52
2022/04/27 11:17:34;;;;;;;2.85;1.10;;;;;;;14.64;100.00;99140.53;5131954;28;20066;-54
2022/04/27 11:20:00;;;;;;;1.23;1.13;;;;;;;14.71;100.00;99140.53;5132545;28;20096;-53
2022/04/27 11:22:28;;;;;;;1.75;1.35;;;;;;;14.75;100.00;99141.31;5132032;28;20104;-52
2022/04/27 11:24:55;;;;;;;1.90;1.10;;;;;;;14.46;100.00;99157.03;5132381;28;20140;-53
2022/04/27 11:27:23;;;;;;;2.50;0.82;;;;;;;14.13;100.00;99142.38;5132037;28;20051;-54
2022/04/27 11:29:51;;;;;;;2.35;1.00;;;;;;;13.61;100.00;99140.97;5131984;28;20058;-54
2022/04/27 11:32:18;;;;;;;1.48;0.90;;;;;;;13.63;100.00;99116.59;5132026;28;20130;-54
2022/04/27 11:34:47;;;;;;;3.88;2.40;;;;;;;13.82;100.00;99116.25;5131891;28;20060;-53
2022/04/27 11:37:15;;;;;;;2.80;1.42;;;;;;;14.10;100.00;99121.09;5131848;28;20461;-53
2022/04/27 11:39:43;;;;;;;4.35;1.60;;;;;;;14.27;100.00;99122.31;5131739;28;20055;-53
2022/04/27 11:42:12;;;;;;;2.53;1.20;;;;;;;14.16;100.00;99131.72;5131998;28;20051;-54
2022/04/27 11:44:39;;;;;;;4.35;1.98;;;;;;;13.88;100.00;99131.25;5131447;27;20047;-54
2022/04/27 11:47:05;;;;;;;1.00;1.00;;;;;;;13.81;100.00;99141.47;5131367;28;20054;-54
2022/04/27 11:49:32;;;;;;;3.85;1.20;;;;;;;13.80;100.00;99137.91;5131647;28;20050;-54